YWBH weather

Wallabadah Airport
New South Wales, Australia

Public forecast

Using degrees Celsius for public forecast. Weather courtesy of forecast.io.

METAR (pilot weather report)

Closest report is Tamworth Airport, 27.0 nm (50.0 km) N. Retrieved 2019/04/24 09:30 UTC (21 minutes ago):

YSTW 240930Z AUTO 27002KT 9999 // NCD 19/08 Q1022 RF00.0/000.0

TAF (pilot weather forecast)

Closest forecast is Tamworth Airport, 27.0 nm (50.0 km) N. Retrieved 2019/04/24 06:36 UTC (3 hours ago):

TAF TAF YSTW 240500Z 2406/2424 15006KT CAVOK FM241100 10006KT CAVOK